Lantana, FL

9:42 AM EDT on May 06, 2015 (GMT -0400)
APRSWXNET | | Change Station
CLOSE
Current Station
Personal Weather Station
Location: Lake Worth, FL
Elevation: 13 ft
Nearby Weather Stations

Elev 13 ft 26.64 °N, 80.04 °W | Updated 42 minutes ago

Overcast
Overcast
69 °F
Feels Like 69 °F
N
3
Wind Variable Wind from NNW
Gusts 8.0 mph

Today
High -- | Low -- °F
--% Chance of Precip.
Yesterday
High -- | Low -- °F
Precip. -- in
6:38 AM 7:55 PM
Waning Gibbous, 94% visible
Pressure 30.02 in
Visibility 7.0 miles
Clouds Scattered Clouds 800 ft
Mostly Cloudy 1600 ft
Mostly Cloudy 5000 ft
Dew Point 68 °F
Humidity 96%
Rainfall in
Snow Depth Not available.
UV 2 out of 12
Pollen 4.50 out of 12
Air Quality Not available.
Flu Activity Local Activity
METAR KPBI 061253Z 33007KT 7SM SCT008 BKN016 BKN050 22/20 A3002 RMK AO2 SLP164 CB DSNT NE T02170200 $

More Conditions Fewer Conditions

Pressure 30.02 in
Visibility 7.0 miles
Clouds Scattered Clouds 800 ft
Mostly Cloudy 1600 ft
Mostly Cloudy 5000 ft
Dew Point 68 °F
Humidity 96%
Rainfall in
Snow Depth Not available.
UV 2 out of 12
Pollen 4.50 out of 12
Air Quality Not available.
Flu Activity Local Activity
METAR KPBI 061253Z 33007KT 7SM SCT008 BKN016 BKN050 22/20 A3002 RMK AO2 SLP164 CB DSNT NE T02170200 $

More Conditions Fewer Conditions

Nowcast | as of 8:52 am EDT on May 6, 2015

Showers and thunderstorms are currently located over the coastal waters of Palm Beach County. Movement of these showers is toward the northeast. Boaters in this area should be aware of persistent and slow moving showers and possible thunderstorms. Other showers and thunderstorms are located over the Bahamas, outside of the South Florida waters.

×

10-Day Weather Forecast

Almanac

Astronomy

May. 06, 2015 Rise Set
Actual Time
Civil Twilight
Nautical Twilight
Astronomical Twilight
Moon
Length of Visible Light
Length of Day
Tomorrow will be .
, % of the Moon is Illuminated

Today's Extremes

State Highs State Lows

Community

WunderPhotos

Upload Photos

1,818,898 photos uploaded!

WunderBlogs® & News

Nearby

Air Quality

  Air Quality AQ Index Pollutant
Not available.

Snow Depth

Station Depth Elevation

Earthquake Activity

City Distance Mag. Time & Date
Minimum magnitude displayed is 2.5.

Coastal Water Temperatures

Place Temperature

Stations

Nearby Weather Stations

Station Location Temp. Windchill Dew Point Humidity Wind Precip. Elev Updated Type